CPX411 Details

Departure: Minneapolis-St Paul International Airport (KMSP)
Arrival: Chicago/Rockford International Airport (KRFD) at N/A
Route: ZMBRO7 ODI J30 COTON RFD
Notes:


Current Weather Information
KMSP 250453Z 15009KT 10SM SCT050 18/13 A3012 RMK AO2 SLP196 T01780128 $
KRFD 250454Z 06007KT 10SM BKN046 16/12 A3021 RMK AO2 SLP226 T01560122